Time;durP1;ratioP1;P1;durP2;ratioP2;P2;SDS_P1;SDS_P2;PMS_P1;PMS_P2;Temp;Humidity;BMP_temperature;BMP_pressure;BME280_temperature;BME280_humidity;BME280_pressure;Samples;Min_cycle;Max_cycle;Signal;HPM_P1;HPM_P2
2021/10/11 00:01:34;;;;;;;13.82;10.55;;;;;;;;;;5007052;28;20410;-89
2021/10/11 00:04:01;;;;;;;14.05;10.57;;;;;;;;;;5006820;28;20403;-89
2021/10/11 00:06:28;;;;;;;14.30;9.90;;;;;;;;;;5007007;28;20415;-89
2021/10/11 00:08:55;;;;;;;12.68;10.45;;;;;;;;;;5006935;28;20415;-89
2021/10/11 00:11:21;;;;;;;14.30;10.18;;;;;;;;;;5006900;28;20477;-89
2021/10/11 00:13:50;;;;;;;13.00;9.88;;;;;;;;;;5006770;28;20418;-89
2021/10/11 00:16:17;;;;;;;12.93;10.20;;;;;;;;;;5007014;28;20410;-89
2021/10/11 00:18:44;;;;;;;13.60;10.35;;;;;;;;;;5006386;28;20422;-89
2021/10/11 00:21:12;;;;;;;12.75;10.25;;;;;;;;;;5006876;28;20434;-89
2021/10/11 00:23:39;;;;;;;15.85;10.75;;;;;;;;;;5006312;28;20402;-89
2021/10/11 00:26:06;;;;;;;13.63;10.32;;;;;;;;;;5006193;28;20402;-87
2021/10/11 00:28:33;;;;;;;13.13;10.60;;;;;;;;;;5006645;28;20418;-89
2021/10/11 00:31:01;;;;;;;14.73;10.87;;;;;;;;;;5001126;28;20430;-89
2021/10/11 00:33:28;;;;;;;12.50;10.13;;;;;;;;;;5006645;28;20426;-89
2021/10/11 00:35:55;;;;;;;14.27;10.33;;;;;;;;;;5006671;28;20499;-89
2021/10/11 00:38:22;;;;;;;12.52;10.35;;;;;;;;;;5007586;28;20933;-89
2021/10/11 00:40:49;;;;;;;14.75;10.38;;;;;;;;;;5007022;28;20403;-89
2021/10/11 00:43:16;;;;;;;14.25;10.77;;;;;;;;;;5007166;28;20399;-89
2021/10/11 00:45:43;;;;;;;13.73;10.20;;;;;;;;;;5006628;28;20426;-89
2021/10/11 00:48:11;;;;;;;14.88;10.85;;;;;;;;;;5007435;28;20406;-89
2021/10/11 00:50:38;;;;;;;13.40;10.30;;;;;;;;;;5006427;28;20419;-90
2021/10/11 00:53:05;;;;;;;14.65;10.75;;;;;;;;;;5007617;28;20414;-90
2021/10/11 00:55:32;;;;;;;13.98;10.80;;;;;;;;;;5008671;28;20426;-90
2021/10/11 00:57:59;;;;;;;13.95;11.48;;;;;;;;;;5013370;28;20415;-90
2021/10/11 01:00:26;;;;;;;13.00;10.70;;;;;;;;;;5014246;28;20395;-90
2021/10/11 01:02:53;;;;;;;14.68;10.80;;;;;;;;;;5032899;28;20402;-88
2021/10/11 01:05:21;;;;;;;14.23;11.40;;;;;;;;;;5023830;28;20395;-89
2021/10/11 01:07:49;;;;;;;14.05;11.18;;;;;;;;;;5010761;28;20399;-89
2021/10/11 01:10:15;;;;;;;13.30;11.52;;;;;;;;;;5009518;28;20977;-90
2021/10/11 01:12:42;;;;;;;14.93;11.65;;;;;;;;;;5009320;28;20430;-89
2021/10/11 01:15:09;;;;;;;14.27;11.75;;;;;;;;;;5007784;28;20422;-89
2021/10/11 01:17:36;;;;;;;17.83;12.00;;;;;;;;;;5009750;28;20410;-89
2021/10/11 01:20:06;;;;;;;15.60;12.00;;;;;;;;;;5009906;28;20503;-89
2021/10/11 01:22:35;;;;;;;16.58;12.57;;;;;;;;;;5003907;28;20425;-89
2021/10/11 01:25:02;;;;;;;14.50;12.02;;;;;;;;;;5006642;28;20427;-89
2021/10/11 01:27:29;;;;;;;15.05;12.15;;;;;;;;;;5009852;28;20403;-89
2021/10/11 01:29:56;;;;;;;16.13;12.07;;;;;;;;;;5009501;28;20406;-89
2021/10/11 01:32:23;;;;;;;15.82;12.55;;;;;;;;;;5009299;28;20447;-88
2021/10/11 01:34:50;;;;;;;17.08;12.75;;;;;;;;;;5008498;28;20764;-89
2021/10/11 01:37:19;;;;;;;15.15;12.85;;;;;;;;;;5009088;28;20875;-88
2021/10/11 01:39:45;;;;;;;16.20;13.07;;;;;;;;;;5008697;28;20426;-89
2021/10/11 01:42:12;;;;;;;17.48;13.65;;;;;;;;;;5009630;28;20411;-88
2021/10/11 01:44:41;;;;;;;16.48;13.10;;;;;;;;;;5009022;28;20883;-88
2021/10/11 01:47:09;;;;;;;16.08;12.65;;;;;;;;;;5008597;28;20422;-89
2021/10/11 01:49:35;;;;;;;19.35;13.55;;;;;;;;;;5008660;28;20395;-88
2021/10/11 01:52:03;;;;;;;17.92;13.05;;;;;;;;;;5005605;28;20418;-89
2021/10/11 01:54:31;;;;;;;17.55;13.75;;;;;;;;;;5004818;28;20788;-88
2021/10/11 01:56:58;;;;;;;16.48;13.90;;;;;;;;;;5008883;28;20418;-88
2021/10/11 01:59:25;;;;;;;16.35;13.82;;;;;;;;;;5009095;28;20419;-89
2021/10/11 02:01:51;;;;;;;15.77;13.48;;;;;;;;;;5009069;28;20399;-89
2021/10/11 02:04:18;;;;;;;16.00;13.13;;;;;;;;;;5008924;28;20423;-89
2021/10/11 02:06:45;;;;;;;17.65;13.20;;;;;;;;;;5009120;28;20414;-89
2021/10/11 02:09:12;;;;;;;15.52;13.30;;;;;;;;;;5009397;28;20399;-87
2021/10/11 02:11:40;;;;;;;15.43;13.10;;;;;;;;;;5008826;28;20411;-90
2021/10/11 02:14:07;;;;;;;16.38;12.85;;;;;;;;;;5009183;28;20408;-90
2021/10/11 02:16:35;;;;;;;16.88;13.88;;;;;;;;;;5008899;28;20768;-89
2021/10/11 02:19:02;;;;;;;16.63;13.45;;;;;;;;;;5001481;28;20419;-90
2021/10/11 02:21:29;;;;;;;17.85;13.80;;;;;;;;;;5008924;28;20417;-89
2021/10/11 02:23:56;;;;;;;17.00;14.38;;;;;;;;;;5009044;28;20522;-90
2021/10/11 02:26:23;;;;;;;18.40;14.38;;;;;;;;;;5004576;28;20415;-89
2021/10/11 02:28:52;;;;;;;19.15;14.75;;;;;;;;;;5008962;28;20391;-90
2021/10/11 02:31:19;;;;;;;19.23;14.77;;;;;;;;;;5008793;28;20473;-89
2021/10/11 02:33:46;;;;;;;18.00;14.52;;;;;;;;;;5008705;28;20907;-89
2021/10/11 02:36:14;;;;;;;19.70;15.17;;;;;;;;;;5006012;28;20415;-90
2021/10/11 02:38:41;;;;;;;22.73;15.03;;;;;;;;;;5005758;28;20698;-90
2021/10/11 02:41:08;;;;;;;21.70;15.27;;;;;;;;;;5005532;28;20451;-90
2021/10/11 02:43:35;;;;;;;18.48;15.23;;;;;;;;;;5008518;28;20411;-89
2021/10/11 02:46:03;;;;;;;20.30;15.15;;;;;;;;;;5006409;28;20479;-89
2021/10/11 02:48:30;;;;;;;19.85;14.85;;;;;;;;;;5006242;28;20422;-89
2021/10/11 02:50:58;;;;;;;17.80;14.55;;;;;;;;;;5003404;28;20411;-89
2021/10/11 02:53:25;;;;;;;17.17;14.33;;;;;;;;;;5006004;28;20411;-89
2021/10/11 02:55:51;;;;;;;21.17;15.38;;;;;;;;;;5009466;28;20397;-89
2021/10/11 02:58:19;;;;;;;21.00;14.80;;;;;;;;;;5014637;28;20920;-88
2021/10/11 03:00:46;;;;;;;20.85;14.85;;;;;;;;;;5010301;28;20418;-88
2021/10/11 03:03:14;;;;;;;21.25;15.43;;;;;;;;;;5007370;28;20914;-89
2021/10/11 03:05:41;;;;;;;19.20;15.27;;;;;;;;;;5000903;28;20442;-90
2021/10/11 03:08:08;;;;;;;20.03;15.87;;;;;;;;;;5008460;28;20904;-88
2021/10/11 03:10:35;;;;;;;18.90;15.00;;;;;;;;;;5008136;28;20414;-88
2021/10/11 03:13:02;;;;;;;18.92;14.90;;;;;;;;;;5003100;28;20423;-88
2021/10/11 03:15:29;;;;;;;20.10;15.77;;;;;;;;;;4990062;28;20491;-88
2021/10/11 03:17:56;;;;;;;19.92;15.07;;;;;;;;;;5001231;28;20422;-89
2021/10/11 03:20:25;;;;;;;19.42;15.07;;;;;;;;;;5007742;28;20779;-88
2021/10/11 03:22:52;;;;;;;19.95;15.10;;;;;;;;;;5008090;28;20956;-89
2021/10/11 03:25:19;;;;;;;19.25;15.35;;;;;;;;;;5008241;28;20465;-89
2021/10/11 03:27:46;;;;;;;17.88;14.93;;;;;;;;;;5008800;28;20411;-88
2021/10/11 03:30:13;;;;;;;19.00;15.10;;;;;;;;;;5008622;28;20403;-88
2021/10/11 03:32:40;;;;;;;17.55;14.60;;;;;;;;;;5008391;28;20427;-89
2021/10/11 03:35:08;;;;;;;18.15;14.88;;;;;;;;;;5001067;28;20407;-88
2021/10/11 03:37:36;;;;;;;19.38;14.48;;;;;;;;;;5002969;28;20419;-88
2021/10/11 03:40:04;;;;;;;17.15;14.13;;;;;;;;;;5008386;28;20403;-88
2021/10/11 03:42:31;;;;;;;20.35;14.52;;;;;;;;;;5007916;28;20780;-90
2021/10/11 03:44:58;;;;;;;19.98;14.95;;;;;;;;;;5008718;28;20408;-89
2021/10/11 03:47:26;;;;;;;18.48;14.30;;;;;;;;;;5008188;28;20415;-90
2021/10/11 03:49:52;;;;;;;17.10;14.35;;;;;;;;;;5008816;28;20764;-90
2021/10/11 03:52:19;;;;;;;18.65;14.43;;;;;;;;;;5007312;28;20441;-89
2021/10/11 03:54:48;;;;;;;18.27;14.63;;;;;;;;;;5007663;28;20407;-89
2021/10/11 03:57:15;;;;;;;17.15;14.30;;;;;;;;;;5008453;28;20409;-89
2021/10/11 03:59:41;;;;;;;18.98;15.05;;;;;;;;;;5008266;28;20931;-89
2021/10/11 04:02:08;;;;;;;16.92;14.50;;;;;;;;;;5012395;28;20892;-89
2021/10/11 04:04:36;;;;;;;19.63;15.18;;;;;;;;;;5006324;28;20416;-88
2021/10/11 04:07:07;;;;;;;18.95;14.85;;;;;;;;;;5007205;28;20506;-88
2021/10/11 04:09:34;;;;;;;20.08;14.40;;;;;;;;;;5010711;28;20505;-89
2021/10/11 04:12:07;;;;;;;17.45;13.88;;;;;;;;;;5010030;28;20399;-90
2021/10/11 04:14:34;;;;;;;18.53;14.60;;;;;;;;;;5029021;28;20472;-89
2021/10/11 04:17:01;;;;;;;17.95;14.20;;;;;;;;;;5011889;28;20411;-90
2021/10/11 04:19:28;;;;;;;18.40;14.32;;;;;;;;;;5006823;28;20967;-89
2021/10/11 04:21:55;;;;;;;17.30;13.77;;;;;;;;;;5006947;28;20395;-89
2021/10/11 04:24:22;;;;;;;18.45;13.40;;;;;;;;;;5006767;28;20407;-89
2021/10/11 04:26:49;;;;;;;18.50;14.65;;;;;;;;;;5007332;28;20411;-90
2021/10/11 04:29:17;;;;;;;18.58;13.98;;;;;;;;;;5007382;28;20426;-89
2021/10/11 04:31:44;;;;;;;17.40;13.03;;;;;;;;;;5009920;28;20430;-89
2021/10/11 04:34:11;;;;;;;19.75;13.80;;;;;;;;;;5010584;28;20644;-89
2021/10/11 04:36:38;;;;;;;16.67;13.43;;;;;;;;;;5009490;28;20449;-88
2021/10/11 04:39:05;;;;;;;16.85;14.07;;;;;;;;;;5010475;28;20803;-89
2021/10/11 04:41:32;;;;;;;17.77;13.77;;;;;;;;;;5009967;28;20482;-90
2021/10/11 04:43:59;;;;;;;16.48;13.32;;;;;;;;;;5011064;28;20405;-89
2021/10/11 04:46:27;;;;;;;17.80;14.02;;;;;;;;;;5009524;28;20407;-90
2021/10/11 04:48:54;;;;;;;18.13;13.98;;;;;;;;;;5010039;28;20410;-90
2021/10/11 04:51:21;;;;;;;18.75;13.82;;;;;;;;;;5002510;28;20415;-90
2021/10/11 04:53:48;;;;;;;17.47;13.63;;;;;;;;;;5007087;28;20445;-89
2021/10/11 04:56:15;;;;;;;19.27;14.60;;;;;;;;;;5006602;28;20420;-89
2021/10/11 04:58:42;;;;;;;16.70;13.43;;;;;;;;;;5002780;28;20802;-90
2021/10/11 05:01:09;;;;;;;18.20;13.98;;;;;;;;;;5003945;28;20774;-89
2021/10/11 05:03:37;;;;;;;18.00;13.95;;;;;;;;;;5008402;28;20399;-90
2021/10/11 05:06:04;;;;;;;18.98;13.68;;;;;;;;;;5007520;28;20461;-91
2021/10/11 05:08:31;;;;;;;18.63;13.85;;;;;;;;;;5007291;28;20424;-89
2021/10/11 05:10:58;;;;;;;19.85;13.70;;;;;;;;;;4996972;28;20439;-88
2021/10/11 05:13:25;;;;;;;18.40;13.70;;;;;;;;;;4999448;28;20422;-89
2021/10/11 05:15:52;;;;;;;20.33;14.82;;;;;;;;;;5000164;28;20906;-91
2021/10/11 05:18:19;;;;;;;20.45;14.45;;;;;;;;;;5009460;28;20477;-90
2021/10/11 05:20:50;;;;;;;18.77;14.18;;;;;;;;;;5004381;28;20916;-89
2021/10/11 05:23:17;;;;;;;16.45;13.85;;;;;;;;;;5005152;28;20416;-89
2021/10/11 05:25:44;;;;;;;17.83;13.95;;;;;;;;;;5007614;28;20420;-89
2021/10/11 05:28:11;;;;;;;18.45;14.48;;;;;;;;;;5006470;28;20420;-90
2021/10/11 05:30:39;;;;;;;18.80;14.05;;;;;;;;;;5003607;28;20675;-89
2021/10/11 05:33:06;;;;;;;18.25;13.93;;;;;;;;;;4999680;28;20427;-89
2021/10/11 05:35:33;;;;;;;20.08;14.30;;;;;;;;;;5013427;28;20692;-89
2021/10/11 05:38:04;;;;;;;20.13;13.85;;;;;;;;;;5009459;28;20411;-89
2021/10/11 05:40:31;;;;;;;16.38;13.55;;;;;;;;;;5013555;28;20442;-83
2021/10/11 05:42:58;;;;;;;17.70;14.02;;;;;;;;;;5010052;28;20402;-88
2021/10/11 05:45:25;;;;;;;19.77;14.88;;;;;;;;;;4996072;28;20407;-87
2021/10/11 05:47:52;;;;;;;18.73;14.45;;;;;;;;;;5013215;28;20424;-88
2021/10/11 05:50:19;;;;;;;20.33;15.13;;;;;;;;;;5008960;28;20911;-88
2021/10/11 05:52:46;;;;;;;20.27;13.80;;;;;;;;;;5011075;28;20428;-88
2021/10/11 05:55:14;;;;;;;21.73;14.82;;;;;;;;;;5009285;28;20403;-87
2021/10/11 05:57:41;;;;;;;22.45;15.55;;;;;;;;;;5006384;28;20769;-88
2021/10/11 06:00:10;;;;;;;21.27;15.27;;;;;;;;;;5004597;28;20453;-87
2021/10/11 06:02:37;;;;;;;19.45;14.60;;;;;;;;;;5006818;28;20407;-88
2021/10/11 06:05:05;;;;;;;20.45;15.25;;;;;;;;;;5004974;28;20447;-87
2021/10/11 06:07:32;;;;;;;20.67;15.07;;;;;;;;;;5002903;28;20513;-87
2021/10/11 06:09:59;;;;;;;22.48;15.02;;;;;;;;;;5005318;28;20410;-88
2021/10/11 06:12:27;;;;;;;19.83;15.68;;;;;;;;;;5005056;28;20430;-88
2021/10/11 06:14:54;;;;;;;21.15;15.60;;;;;;;;;;5005484;28;20412;-88
2021/10/11 06:17:21;;;;;;;22.00;15.65;;;;;;;;;;5006505;28;20496;-88
2021/10/11 06:19:48;;;;;;;22.65;15.32;;;;;;;;;;5005628;28;20411;-87
2021/10/11 06:22:15;;;;;;;24.83;16.13;;;;;;;;;;5006963;28;20413;-88
2021/10/11 06:24:42;;;;;;;22.03;15.30;;;;;;;;;;5006738;28;20831;-88
2021/10/11 06:27:09;;;;;;;21.35;15.18;;;;;;;;;;5008143;28;20763;-88
2021/10/11 06:29:37;;;;;;;24.92;15.60;;;;;;;;;;5006786;28;20494;-88
2021/10/11 06:32:05;;;;;;;30.48;17.40;;;;;;;;;;5000104;28;20414;-88
2021/10/11 06:34:31;;;;;;;21.83;14.75;;;;;;;;;;5002281;28;20446;-88
2021/10/11 06:36:58;;;;;;;19.88;15.23;;;;;;;;;;5006053;28;20391;-88
2021/10/11 06:39:25;;;;;;;23.27;16.67;;;;;;;;;;5000808;28;20421;-87
2021/10/11 06:41:52;;;;;;;20.57;15.63;;;;;;;;;;5004040;28;20407;-88
2021/10/11 06:44:19;;;;;;;19.85;15.80;;;;;;;;;;5007864;28;20867;-88
2021/10/11 06:46:49;;;;;;;19.88;15.10;;;;;;;;;;4998173;28;20442;-88
2021/10/11 06:49:16;;;;;;;21.60;15.10;;;;;;;;;;5004628;28;20469;-88
2021/10/11 06:51:43;;;;;;;18.33;13.82;;;;;;;;;;5006104;28;20477;-88
2021/10/11 06:54:10;;;;;;;30.60;15.47;;;;;;;;;;5006103;28;20431;-89
2021/10/11 06:56:37;;;;;;;26.40;14.25;;;;;;;;;;5004747;28;20418;-88
2021/10/11 06:59:04;;;;;;;37.22;15.85;;;;;;;;;;5005749;28;20410;-88
2021/10/11 07:01:31;;;;;;;20.67;12.35;;;;;;;;;;5006159;28;20914;-88
2021/10/11 07:03:59;;;;;;;19.13;11.85;;;;;;;;;;5001121;28;21018;-88
2021/10/11 07:06:26;;;;;;;16.20;12.30;;;;;;;;;;5005877;28;20430;-88
2021/10/11 07:08:53;;;;;;;18.88;12.05;;;;;;;;;;5005938;28;20407;-88
2021/10/11 07:11:20;;;;;;;29.35;14.27;;;;;;;;;;5005345;28;20503;-88
2021/10/11 07:13:47;;;;;;;16.90;11.95;;;;;;;;;;5005507;28;20593;-88
2021/10/11 07:16:14;;;;;;;18.42;12.30;;;;;;;;;;5006436;28;20410;-88
2021/10/11 07:18:41;;;;;;;16.47;12.47;;;;;;;;;;5005483;28;20407;-89
2021/10/11 07:21:09;;;;;;;18.15;12.65;;;;;;;;;;5005582;28;20407;-88
2021/10/11 07:23:37;;;;;;;17.67;12.68;;;;;;;;;;5005242;28;20461;-89
2021/10/11 07:26:05;;;;;;;15.93;12.63;;;;;;;;;;5006374;28;20399;-88
2021/10/11 07:28:32;;;;;;;14.18;11.80;;;;;;;;;;5010856;28;20411;-89
2021/10/11 07:30:59;;;;;;;17.48;12.35;;;;;;;;;;5027853;28;20394;-88
2021/10/11 07:33:26;;;;;;;15.38;12.05;;;;;;;;;;5010826;28;20415;-88
2021/10/11 07:35:54;;;;;;;16.55;12.32;;;;;;;;;;5005874;28;20415;-88
2021/10/11 07:38:22;;;;;;;17.15;12.00;;;;;;;;;;5002772;28;20926;-89
2021/10/11 07:40:50;;;;;;;16.10;11.77;;;;;;;;;;4999071;28;20417;-88
2021/10/11 07:43:17;;;;;;;16.27;11.85;;;;;;;;;;5006099;28;20403;-88
2021/10/11 07:45:44;;;;;;;16.05;11.85;;;;;;;;;;5005633;28;20402;-89
2021/10/11 07:48:10;;;;;;;16.13;11.50;;;;;;;;;;5004360;28;20414;-89
2021/10/11 07:50:37;;;;;;;16.90;11.70;;;;;;;;;;5002636;28;20418;-88
2021/10/11 07:53:04;;;;;;;15.20;11.57;;;;;;;;;;5003549;28;20427;-89
2021/10/11 07:55:32;;;;;;;15.93;11.35;;;;;;;;;;4997995;28;20414;-88
2021/10/11 07:57:59;;;;;;;13.40;11.10;;;;;;;;;;4999831;28;20935;-88
2021/10/11 08:00:27;;;;;;;14.15;10.98;;;;;;;;;;5005026;28;20415;-88
2021/10/11 08:02:54;;;;;;;15.75;11.35;;;;;;;;;;5005655;28;21239;-88
2021/10/11 08:05:21;;;;;;;17.02;12.38;;;;;;;;;;5005396;28;20404;-88
2021/10/11 08:07:47;;;;;;;14.07;11.32;;;;;;;;;;5008026;28;20425;-88
2021/10/11 08:10:14;;;;;;;16.83;12.10;;;;;;;;;;5010069;28;20954;-89
2021/10/11 08:12:43;;;;;;;18.50;14.05;;;;;;;;;;5009945;28;20516;-88
2021/10/11 08:15:10;;;;;;;19.60;14.20;;;;;;;;;;5010645;28;20495;-88
2021/10/11 08:17:37;;;;;;;16.45;13.55;;;;;;;;;;5010671;28;20406;-86
2021/10/11 08:20:06;;;;;;;21.00;15.55;;;;;;;;;;5010498;28;20410;-87
2021/10/11 08:22:33;;;;;;;15.32;12.82;;;;;;;;;;5006506;28;20410;-87
2021/10/11 08:25:00;;;;;;;17.80;13.00;;;;;;;;;;5010134;28;20411;-88
2021/10/11 08:27:27;;;;;;;20.42;13.38;;;;;;;;;;5011985;28;20910;-88
2021/10/11 08:29:55;;;;;;;16.02;12.68;;;;;;;;;;5010863;28;20438;-87
2021/10/11 08:32:24;;;;;;;18.63;12.00;;;;;;;;;;5009478;28;20407;-87
2021/10/11 08:34:52;;;;;;;16.63;12.77;;;;;;;;;;5010728;28;20425;-88
2021/10/11 08:37:19;;;;;;;16.58;12.80;;;;;;;;;;5010769;28;20910;-87
2021/10/11 08:39:46;;;;;;;15.65;13.07;;;;;;;;;;5010828;28;20787;-87
2021/10/11 08:42:14;;;;;;;18.30;13.45;;;;;;;;;;5009224;28;20418;-89
2021/10/11 08:44:41;;;;;;;21.08;13.60;;;;;;;;;;5008991;28;20403;-89
2021/10/11 08:47:11;;;;;;;16.17;12.23;;;;;;;;;;5009089;28;20754;-88
2021/10/11 08:49:41;;;;;;;15.75;12.30;;;;;;;;;;5008376;28;20443;-88
2021/10/11 08:52:08;;;;;;;15.27;11.18;;;;;;;;;;5008907;28;20427;-88
2021/10/11 08:54:36;;;;;;;13.85;11.48;;;;;;;;;;5008126;28;20433;-89
2021/10/11 08:57:04;;;;;;;13.65;10.77;;;;;;;;;;5004953;28;20403;-89
2021/10/11 08:59:31;;;;;;;11.15;9.70;;;;;;;;;;5005272;28;20402;-90
2021/10/11 09:02:03;;;;;;;13.10;9.65;;;;;;;;;;5008598;28;20410;-89
2021/10/11 09:04:32;;;;;;;14.77;10.90;;;;;;;;;;5008170;28;20402;-89
2021/10/11 09:07:03;;;;;;;14.30;10.17;;;;;;;;;;5008429;28;20770;-88
2021/10/11 09:09:30;;;;;;;13.73;10.13;;;;;;;;;;5008592;28;20403;-89
2021/10/11 09:11:57;;;;;;;12.95;10.02;;;;;;;;;;5008562;28;20438;-88
2021/10/11 09:14:24;;;;;;;12.95;10.05;;;;;;;;;;5007882;28;20683;-89
2021/10/11 09:17:00;;;;;;;14.77;10.10;;;;;;;;;;5007449;28;20415;-89
2021/10/11 09:19:34;;;;;;;13.23;10.02;;;;;;;;;;5008095;28;20501;-88
2021/10/11 09:22:02;;;;;;;13.63;10.00;;;;;;;;;;5009477;28;20407;-89
2021/10/11 09:24:29;;;;;;;12.68;10.07;;;;;;;;;;5004108;28;20407;-89
2021/10/11 09:26:59;;;;;;;13.73;9.68;;;;;;;;;;5011610;28;20411;-89
2021/10/11 09:29:31;;;;;;;14.25;9.98;;;;;;;;;;5011705;28;20399;-89
2021/10/11 09:32:00;;;;;;;13.25;10.25;;;;;;;;;;5011725;28;20406;-89
2021/10/11 09:34:28;;;;;;;13.13;9.60;;;;;;;;;;5008183;28;20501;-89
2021/10/11 09:37:01;;;;;;;12.15;9.70;;;;;;;;;;5007886;28;20527;-90
2021/10/11 09:39:30;;;;;;;12.82;9.45;;;;;;;;;;5011670;28;20747;-89
2021/10/11 09:41:58;;;;;;;14.63;9.45;;;;;;;;;;5013168;28;20870;-87
2021/10/11 09:44:26;;;;;;;9.93;8.20;;;;;;;;;;5011319;28;20409;-88
2021/10/11 09:46:57;;;;;;;9.85;7.63;;;;;;;;;;5008481;28;20422;-88
2021/10/11 09:49:25;;;;;;;11.98;7.90;;;;;;;;;;5005804;28;20911;-87
2021/10/11 09:51:53;;;;;;;13.32;8.18;;;;;;;;;;5000299;28;20499;-87
2021/10/11 09:54:22;;;;;;;10.32;7.97;;;;;;;;;;5009358;28;20978;-90
2021/10/11 09:56:50;;;;;;;10.07;7.60;;;;;;;;;;5008405;28;20555;-88
2021/10/11 09:59:17;;;;;;;10.15;7.60;;;;;;;;;;5008303;28;20403;-88
2021/10/11 10:01:46;;;;;;;11.40;7.30;;;;;;;;;;5007803;28;20456;-89
2021/10/11 10:04:16;;;;;;;9.25;7.07;;;;;;;;;;5007871;28;20413;-89
2021/10/11 10:06:46;;;;;;;9.75;7.10;;;;;;;;;;5011317;28;20411;-88
2021/10/11 10:09:14;;;;;;;7.63;6.23;;;;;;;;;;5008368;28;20490;-89
2021/10/11 10:11:43;;;;;;;9.68;6.90;;;;;;;;;;5005373;28;21114;-89
2021/10/11 10:14:19;;;;;;;9.15;6.03;;;;;;;;;;5002864;28;20426;-89
2021/10/11 10:16:49;;;;;;;8.63;6.93;;;;;;;;;;5007735;28;20418;-88
2021/10/11 10:19:16;;;;;;;9.18;6.70;;;;;;;;;;5005308;28;20406;-88
2021/10/11 10:21:42;;;;;;;7.40;6.07;;;;;;;;;;4999235;28;20415;-89
2021/10/11 10:24:09;;;;;;;9.68;6.50;;;;;;;;;;4991683;28;20935;-87
2021/10/11 10:26:37;;;;;;;10.27;6.07;;;;;;;;;;5003308;28;20480;-87
2021/10/11 10:29:18;;;;;;;7.07;6.03;;;;;;;;;;5007749;28;20414;-87
2021/10/11 10:31:45;;;;;;;8.40;6.55;;;;;;;;;;5006559;28;20407;-88
2021/10/11 10:34:17;;;;;;;8.82;6.50;;;;;;;;;;5007652;28;20434;-88
2021/10/11 10:36:44;;;;;;;8.57;6.10;;;;;;;;;;5007086;28;20418;-88
2021/10/11 10:39:13;;;;;;;9.32;6.13;;;;;;;;;;5008008;28;20383;-88
2021/10/11 10:41:43;;;;;;;9.57;5.80;;;;;;;;;;5007668;28;20911;-87
2021/10/11 10:44:14;;;;;;;8.40;6.38;;;;;;;;;;5020021;22;20536;-93
2021/10/11 10:46:58;;;;;;;9.93;6.40;;;;;;;;;;5027166;28;20409;-93
2021/10/11 10:49:33;;;;;;;10.75;8.00;;;;;;;;;;5032151;28;20409;-93
2021/10/11 10:52:01;;;;;;;10.83;7.70;;;;;;;;;;5029976;28;20513;-93
2021/10/11 10:54:36;;;;;;;11.02;7.88;;;;;;;;;;5029397;28;20444;-93
2021/10/11 10:57:04;;;;;;;10.50;7.35;;;;;;;;;;5029114;28;20403;-93
2021/10/11 10:59:30;;;;;;;9.45;7.25;;;;;;;;;;5028947;28;20397;-92
2021/10/11 11:02:10;;;;;;;9.10;7.10;;;;;;;;;;5029694;28;20409;-93
2021/10/11 11:04:38;;;;;;;8.45;7.20;;;;;;;;;;5028760;28;20409;-93
2021/10/11 11:07:07;;;;;;;11.10;7.18;;;;;;;;;;5034640;28;20407;-92
2021/10/11 11:09:42;;;;;;;9.90;7.53;;;;;;;;;;5037576;28;20896;-93
2021/10/11 11:12:09;;;;;;;8.90;7.70;;;;;;;;;;5030090;28;20412;-93
2021/10/11 11:14:36;;;;;;;8.27;6.80;;;;;;;;;;5023590;28;20417;-93
2021/10/11 11:17:03;;;;;;;8.52;6.78;;;;;;;;;;5027113;28;20413;-90
2021/10/11 11:19:40;;;;;;;11.03;6.73;;;;;;;;;;5025792;28;20475;-94
2021/10/11 11:22:07;;;;;;;10.27;6.03;;;;;;;;;;5034934;28;20518;-93
2021/10/11 11:24:35;;;;;;;8.32;5.57;;;;;;;;;;5029590;28;20399;-94
2021/10/11 11:27:02;;;;;;;8.93;5.85;;;;;;;;;;5022459;28;20452;-94
2021/10/11 11:29:31;;;;;;;7.85;5.60;;;;;;;;;;5024655;28;20448;-94
2021/10/11 11:31:57;;;;;;;6.57;5.40;;;;;;;;;;5026444;28;20405;-94
2021/10/11 11:34:26;;;;;;;7.70;5.60;;;;;;;;;;5028023;28;20427;-93
2021/10/11 11:36:56;;;;;;;6.60;5.75;;;;;;;;;;5023758;28;20417;-94
2021/10/11 11:39:26;;;;;;;8.02;5.45;;;;;;;;;;5026995;28;20409;-95
2021/10/11 11:41:54;;;;;;;9.40;5.38;;;;;;;;;;5036817;28;20458;-93
2021/10/11 11:44:26;;;;;;;9.40;6.00;;;;;;;;;;5043278;28;20418;-94
2021/10/11 11:47:03;;;;;;;9.40;6.70;;;;;;;;;;5026450;28;20406;-93
2021/10/11 11:49:34;;;;;;;10.07;7.13;;;;;;;;;;5027097;28;20406;-94
2021/10/11 11:52:10;;;;;;;9.77;7.28;;;;;;;;;;5008237;28;20438;-94
2021/10/11 11:54:39;;;;;;;9.30;6.82;;;;;;;;;;5027027;28;20429;-95
2021/10/11 11:57:07;;;;;;;9.93;6.82;;;;;;;;;;5023603;28;20757;-94
2021/10/11 11:59:39;;;;;;;10.50;6.85;;;;;;;;;;5028104;28;20471;-93
2021/10/11 12:02:07;;;;;;;8.90;6.50;;;;;;;;;;5020070;28;20778;-94
2021/10/11 12:04:37;;;;;;;9.13;6.20;;;;;;;;;;5021688;28;20439;-96
2021/10/11 12:07:15;;;;;;;8.65;6.20;;;;;;;;;;5039960;28;20432;-96
2021/10/11 12:15:28;;;;;;;10.20;6.70;;;;;;;;;;5044130;28;20427;-96
2021/10/11 12:18:14;;;;;;;12.02;6.80;;;;;;;;;;5041855;28;20403;-96
2021/10/11 12:26:49;;;;;;;8.77;6.60;;;;;;;;;;5003263;23;20428;-96
2021/10/11 12:29:21;;;;;;;8.32;6.30;;;;;;;;;;4979251;28;20407;-96
2021/10/11 12:32:02;;;;;;;9.77;7.00;;;;;;;;;;4981906;28;20451;-96
2021/10/11 12:34:35;;;;;;;12.98;6.40;;;;;;;;;;4980599;28;20484;-96
2021/10/11 12:37:07;;;;;;;9.33;6.70;;;;;;;;;;4979459;28;20498;-95
2021/10/11 12:39:41;;;;;;;7.72;6.40;;;;;;;;;;4984158;28;20763;-96
2021/10/11 12:42:18;;;;;;;10.40;5.78;;;;;;;;;;4984229;28;20414;-96
2021/10/11 12:44:56;;;;;;;18.35;6.90;;;;;;;;;;4981482;28;20417;-96
2021/10/11 12:47:31;;;;;;;8.95;5.88;;;;;;;;;;4985289;28;20422;-96
2021/10/11 12:50:05;;;;;;;9.27;5.30;;;;;;;;;;4985784;28;20410;-95
2021/10/11 12:52:40;;;;;;;7.20;4.65;;;;;;;;;;4992855;28;20434;-96
2021/10/11 12:55:22;;;;;;;6.38;5.03;;;;;;;;;;4979671;28;20482;-96
2021/10/11 12:58:03;;;;;;;7.10;4.95;;;;;;;;;;4989160;28;20436;-96
2021/10/11 13:00:35;;;;;;;19.73;6.32;;;;;;;;;;4987183;28;20822;-96
2021/10/11 13:03:04;;;;;;;9.43;4.90;;;;;;;;;;4988038;28;20407;-96
2021/10/11 13:20:35;;;;;;;10.03;4.80;;;;;;;;;;4988366;28;20480;-96
2021/10/11 14:28:02;;;;;;;6.63;3.40;;;;;;;;;;5081335;28;20403;-94
2021/10/11 14:30:41;;;;;;;5.05;3.40;;;;;;;;;;5077463;28;20814;-91
2021/10/11 15:58:27;;;;;;;5.82;3.40;;;;;;;;;;5079016;28;20392;-93
2021/10/11 16:01:13;;;;;;;6.50;3.53;;;;;;;;;;5080386;28;20414;-92
2021/10/11 16:03:52;;;;;;;4.90;3.27;;;;;;;;;;5080952;28;20418;-92
2021/10/11 16:06:22;;;;;;;5.95;3.40;;;;;;;;;;5058856;28;20404;-91
2021/10/11 16:08:49;;;;;;;7.35;3.58;;;;;;;;;;5084033;28;20403;-94
2021/10/11 16:11:19;;;;;;;4.80;3.50;;;;;;;;;;5082308;28;20419;-93
2021/10/11 16:13:47;;;;;;;5.35;3.50;;;;;;;;;;5080568;28;20398;-93
2021/10/11 16:16:14;;;;;;;4.97;3.50;;;;;;;;;;5079156;28;20460;-93
2021/10/11 16:18:42;;;;;;;5.93;3.70;;;;;;;;;;5082248;28;20443;-92
2021/10/11 16:21:10;;;;;;;4.78;3.55;;;;;;;;;;5059585;28;20412;-91
2021/10/11 16:23:39;;;;;;;6.60;3.37;;;;;;;;;;5075602;28;20408;-93
2021/10/11 16:26:07;;;;;;;6.25;3.45;;;;;;;;;;5078631;28;20413;-92
2021/10/11 16:28:37;;;;;;;6.30;3.50;;;;;;;;;;5089356;28;20879;-92
2021/10/11 16:31:06;;;;;;;5.70;3.40;;;;;;;;;;5079442;28;20505;-92
2021/10/11 16:33:36;;;;;;;8.05;3.78;;;;;;;;;;5065548;28;20408;-93
2021/10/11 16:36:03;;;;;;;7.30;3.40;;;;;;;;;;5077253;28;20409;-91
2021/10/11 16:38:30;;;;;;;5.60;3.42;;;;;;;;;;5080484;28;20449;-92
2021/10/11 16:40:57;;;;;;;5.18;3.88;;;;;;;;;;5089869;28;20390;-91
2021/10/11 16:43:24;;;;;;;5.85;3.83;;;;;;;;;;5089425;28;20892;-91
2021/10/11 16:45:53;;;;;;;7.23;3.63;;;;;;;;;;5085098;28;20415;-92
2021/10/11 16:48:21;;;;;;;10.30;3.80;;;;;;;;;;5087610;28;21017;-90
2021/10/11 16:50:48;;;;;;;6.90;3.58;;;;;;;;;;5085847;28;20431;-92
2021/10/11 16:53:15;;;;;;;6.30;3.67;;;;;;;;;;5083134;28;20421;-92
2021/10/11 16:55:42;;;;;;;5.70;3.58;;;;;;;;;;5081777;28;20424;-91
2021/10/11 16:58:12;;;;;;;5.32;3.50;;;;;;;;;;5080289;28;20471;-91
2021/10/11 17:00:42;;;;;;;6.53;3.67;;;;;;;;;;5080241;28;20644;-92
2021/10/11 17:03:11;;;;;;;5.90;3.70;;;;;;;;;;5063368;28;20419;-93
2021/10/11 17:05:38;;;;;;;8.55;4.13;;;;;;;;;;5079868;28;20413;-91
2021/10/11 17:08:06;;;;;;;7.63;4.15;;;;;;;;;;5086182;28;20908;-92
2021/10/11 17:10:33;;;;;;;7.20;4.10;;;;;;;;;;5084794;28;20396;-92
2021/10/11 17:13:00;;;;;;;6.65;4.20;;;;;;;;;;5079800;28;20935;-92
2021/10/11 17:15:27;;;;;;;7.95;4.43;;;;;;;;;;5077909;28;20446;-91
2021/10/11 17:17:54;;;;;;;8.73;3.90;;;;;;;;;;5079496;28;20390;-92
2021/10/11 17:20:23;;;;;;;9.93;4.70;;;;;;;;;;5083629;28;20411;-94
2021/10/11 17:22:50;;;;;;;6.70;4.22;;;;;;;;;;5078096;28;20408;-93
2021/10/11 17:25:18;;;;;;;8.02;4.38;;;;;;;;;;5108970;28;20406;-96
2021/10/11 17:27:45;;;;;;;12.35;4.60;;;;;;;;;;5121136;28;20409;-96
2021/10/11 17:30:13;;;;;;;8.75;4.80;;;;;;;;;;5097151;28;20465;-96